sensor_id;sensor_type;location;lat;lon;timestamp;noise_LAeq;noise_LA_min;noise_LA_max;noise_LA01;noise_LA95
66460;Laerm;58055;52.456;4.738;2023-07-29T00:00:02;56.17;49.87;58.88;;
66460;Laerm;58055;52.456;4.738;2023-07-29T00:00:13;56.13;51.14;60.32;;
66460;Laerm;58055;52.456;4.738;2023-07-29T00:00:23;52.72;48.04;58.19;;
66460;Laerm;58055;52.456;4.738;2023-07-29T00:00:34;51.27;48.23;54.08;;
66460;Laerm;58055;52.456;4.738;2023-07-29T00:00:44;52.19;48.59;58.49;;
66460;Laerm;58055;52.456;4.738;2023-07-29T00:00:55;55.08;50.52;59.54;;
66460;Laerm;58055;52.456;4.738;2023-07-29T00:01:06;55.30;48.80;61.20;;
66460;Laerm;58055;52.456;4.738;2023-07-29T00:01:16;56.97;48.13;62.85;;
66460;Laerm;58055;52.456;4.738;2023-07-29T00:01:26;55.68;50.70;62.42;;
66460;Laerm;58055;52.456;4.738;2023-07-29T00:01:36;56.02;50.47;66.13;;
66460;Laerm;58055;52.456;4.738;2023-07-29T00:01:47;52.84;48.44;59.50;;
66460;Laerm;58055;52.456;4.738;2023-07-29T00:01:59;52.21;48.96;60.22;;
66460;Laerm;58055;52.456;4.738;2023-07-29T00:02:09;51.49;47.68;56.95;;
66460;Laerm;58055;52.456;4.738;2023-07-29T00:02:20;58.51;47.81;71.45;;
66460;Laerm;58055;52.456;4.738;2023-07-29T00:02:30;54.88;50.44;58.87;;
66460;Laerm;58055;52.456;4.738;2023-07-29T00:02:42;55.13;50.88;58.69;;
66460;Laerm;58055;52.456;4.738;2023-07-29T00:02:52;52.76;48.27;57.78;;
66460;Laerm;58055;52.456;4.738;2023-07-29T00:03:03;52.22;49.41;55.59;;
66460;Laerm;58055;52.456;4.738;2023-07-29T00:03:13;51.78;49.14;55.01;;
66460;Laerm;58055;52.456;4.738;2023-07-29T00:03:23;52.23;49.41;55.79;;
66460;Laerm;58055;52.456;4.738;2023-07-29T00:03:34;52.22;49.74;56.59;;
66460;Laerm;58055;52.456;4.738;2023-07-29T00:03:44;50.35;47.49;58.05;;
66460;Laerm;58055;52.456;4.738;2023-07-29T00:03:54;52.83;48.08;58.35;;
66460;Laerm;58055;52.456;4.738;2023-07-29T00:04:04;49.25;47.13;52.72;;
66460;Laerm;58055;52.456;4.738;2023-07-29T00:04:15;50.59;47.24;53.70;;
66460;Laerm;58055;52.456;4.738;2023-07-29T00:04:26;50.84;47.71;55.22;;
66460;Laerm;58055;52.456;4.738;2023-07-29T00:04:36;52.25;49.05;55.12;;
66460;Laerm;58055;52.456;4.738;2023-07-29T00:04:46;52.96;48.47;56.75;;
66460;Laerm;58055;52.456;4.738;2023-07-29T00:04:57;54.60;50.17;58.82;;
66460;Laerm;58055;52.456;4.738;2023-07-29T00:05:07;53.97;50.72;59.42;;
66460;Laerm;58055;52.456;4.738;2023-07-29T00:05:17;53.45;48.35;56.84;;
66460;Laerm;58055;52.456;4.738;2023-07-29T00:05:28;51.65;48.05;55.84;;
66460;Laerm;58055;52.456;4.738;2023-07-29T00:05:38;52.30;48.34;57.00;;
66460;Laerm;58055;52.456;4.738;2023-07-29T00:05:49;53.33;48.61;59.35;;
66460;Laerm;58055;52.456;4.738;2023-07-29T00:05:59;51.86;48.58;56.63;;
66460;Laerm;58055;52.456;4.738;2023-07-29T00:06:09;50.56;47.42;62.83;;
66460;Laerm;58055;52.456;4.738;2023-07-29T00:06:20;53.51;48.33;59.92;;
66460;Laerm;58055;52.456;4.738;2023-07-29T00:06:30;55.85;48.71;64.99;;
66460;Laerm;58055;52.456;4.738;2023-07-29T00:06:40;54.35;47.72;64.01;;
66460;Laerm;58055;52.456;4.738;2023-07-29T00:06:50;56.09;48.55;64.83;;
66460;Laerm;58055;52.456;4.738;2023-07-29T00:07:01;52.87;48.41;62.30;;
66460;Laerm;58055;52.456;4.738;2023-07-29T00:07:11;54.28;48.01;61.99;;
66460;Laerm;58055;52.456;4.738;2023-07-29T00:07:21;56.22;47.22;61.88;;
66460;Laerm;58055;52.456;4.738;2023-07-29T00:07:31;60.12;47.22;67.87;;
66460;Laerm;58055;52.456;4.738;2023-07-29T00:07:42;57.53;47.63;66.24;;
66460;Laerm;58055;52.456;4.738;2023-07-29T00:07:52;55.68;47.99;67.30;;
66460;Laerm;58055;52.456;4.738;2023-07-29T00:08:02;56.14;48.75;63.49;;
66460;Laerm;58055;52.456;4.738;2023-07-29T00:08:12;57.63;47.59;64.11;;
66460;Laerm;58055;52.456;4.738;2023-07-29T00:08:23;49.96;47.13;56.91;;
66460;Laerm;58055;52.456;4.738;2023-07-29T00:08:33;49.04;47.10;53.60;;
66460;Laerm;58055;52.456;4.738;2023-07-29T00:08:43;48.38;47.18;51.50;;
66460;Laerm;58055;52.456;4.738;2023-07-29T00:08:53;48.69;47.08;56.76;;
66460;Laerm;58055;52.456;4.738;2023-07-29T00:09:04;48.57;47.11;53.28;;
66460;Laerm;58055;52.456;4.738;2023-07-29T00:09:14;48.82;47.17;52.39;;
66460;Laerm;58055;52.456;4.738;2023-07-29T00:09:24;49.27;47.13;53.60;;
66460;Laerm;58055;52.456;4.738;2023-07-29T00:09:35;49.17;47.52;52.80;;
66460;Laerm;58055;52.456;4.738;2023-07-29T00:09:45;48.76;47.17;54.63;;
66460;Laerm;58055;52.456;4.738;2023-07-29T00:09:55;48.97;47.46;52.19;;
66460;Laerm;58055;52.456;4.738;2023-07-29T00:10:06;48.97;47.36;54.03;;
66460;Laerm;58055;52.456;4.738;2023-07-29T00:10:16;48.79;46.68;55.95;;
66460;Laerm;58055;52.456;4.738;2023-07-29T00:10:26;49.03;47.06;55.44;;
66460;Laerm;58055;52.456;4.738;2023-07-29T00:10:37;50.70;47.13;55.12;;
66460;Laerm;58055;52.456;4.738;2023-07-29T00:10:47;48.98;47.15;51.25;;
66460;Laerm;58055;52.456;4.738;2023-07-29T00:10:57;49.06;47.20;54.80;;
66460;Laerm;58055;52.456;4.738;2023-07-29T00:11:08;49.15;47.32;54.57;;
66460;Laerm;58055;52.456;4.738;2023-07-29T00:11:18;48.59;47.08;52.49;;
66460;Laerm;58055;52.456;4.738;2023-07-29T00:11:28;49.05;47.48;56.25;;
66460;Laerm;58055;52.456;4.738;2023-07-29T00:11:39;49.17;47.55;54.59;;
66460;Laerm;58055;52.456;4.738;2023-07-29T00:11:49;49.16;47.14;56.91;;
66460;Laerm;58055;52.456;4.738;2023-07-29T00:11:59;49.39;47.46;52.75;;
66460;Laerm;58055;52.456;4.738;2023-07-29T00:12:09;49.81;47.58;54.26;;
66460;Laerm;58055;52.456;4.738;2023-07-29T00:12:20;50.68;47.94;55.67;;
66460;Laerm;58055;52.456;4.738;2023-07-29T00:12:30;50.29;47.59;58.59;;
66460;Laerm;58055;52.456;4.738;2023-07-29T00:12:40;54.61;47.98;62.16;;
66460;Laerm;58055;52.456;4.738;2023-07-29T00:12:51;60.67;53.88;62.86;;
66460;Laerm;58055;52.456;4.738;2023-07-29T00:13:01;60.15;56.63;62.03;;
66460;Laerm;58055;52.456;4.738;2023-07-29T00:13:11;58.66;54.82;61.01;;
66460;Laerm;58055;52.456;4.738;2023-07-29T00:13:22;59.69;54.61;63.24;;
66460;Laerm;58055;52.456;4.738;2023-07-29T00:13:32;59.35;52.48;61.96;;
66460;Laerm;58055;52.456;4.738;2023-07-29T00:13:42;56.97;51.80;61.55;;
66460;Laerm;58055;52.456;4.738;2023-07-29T00:13:52;56.46;52.87;58.38;;
66460;Laerm;58055;52.456;4.738;2023-07-29T00:14:03;56.43;50.12;59.28;;
66460;Laerm;58055;52.456;4.738;2023-07-29T00:14:13;56.76;52.20;59.04;;
66460;Laerm;58055;52.456;4.738;2023-07-29T00:14:23;56.74;53.05;59.75;;
66460;Laerm;58055;52.456;4.738;2023-07-29T00:14:34;57.41;48.42;62.61;;
66460;Laerm;58055;52.456;4.738;2023-07-29T00:14:44;57.57;47.57;65.06;;
66460;Laerm;58055;52.456;4.738;2023-07-29T00:14:54;59.96;48.39;65.87;;
66460;Laerm;58055;52.456;4.738;2023-07-29T00:15:05;60.48;48.57;66.95;;
66460;Laerm;58055;52.456;4.738;2023-07-29T00:15:15;55.33;46.96;64.51;;
66460;Laerm;58055;52.456;4.738;2023-07-29T00:15:26;55.95;47.16;64.10;;
66460;Laerm;58055;52.456;4.738;2023-07-29T00:15:36;56.81;46.79;64.23;;
66460;Laerm;58055;52.456;4.738;2023-07-29T00:15:46;55.42;49.45;60.04;;
66460;Laerm;58055;52.456;4.738;2023-07-29T00:15:56;54.12;49.39;59.63;;
66460;Laerm;58055;52.456;4.738;2023-07-29T00:16:07;52.87;47.65;57.43;;
66460;Laerm;58055;52.456;4.738;2023-07-29T00:16:17;50.29;47.13;54.31;;
66460;Laerm;58055;52.456;4.738;2023-07-29T00:16:27;51.54;47.62;59.16;;
66460;Laerm;58055;52.456;4.738;2023-07-29T00:16:38;55.13;48.64;60.83;;
66460;Laerm;58055;52.456;4.738;2023-07-29T00:16:48;58.43;53.21;62.45;;
66460;Laerm;58055;52.456;4.738;2023-07-29T00:16:58;60.06;48.34;67.91;;
66460;Laerm;58055;52.456;4.738;2023-07-29T00:17:09;62.04;53.06;67.28;;
66460;Laerm;58055;52.456;4.738;2023-07-29T00:17:19;62.99;54.31;66.98;;
66460;Laerm;58055;52.456;4.738;2023-07-29T00:17:30;59.33;48.23;66.11;;
66460;Laerm;58055;52.456;4.738;2023-07-29T00:17:40;59.09;51.39;65.92;;
66460;Laerm;58055;52.456;4.738;2023-07-29T00:17:50;59.88;50.98;64.99;;
66460;Laerm;58055;52.456;4.738;2023-07-29T00:18:01;54.37;48.79;63.83;;
66460;Laerm;58055;52.456;4.738;2023-07-29T00:18:11;50.74;48.19;56.08;;
66460;Laerm;58055;52.456;4.738;2023-07-29T00:18:22;50.62;48.28;56.36;;
66460;Laerm;58055;52.456;4.738;2023-07-29T00:18:33;52.01;48.48;55.97;;
66460;Laerm;58055;52.456;4.738;2023-07-29T00:18:43;51.67;47.94;57.58;;
66460;Laerm;58055;52.456;4.738;2023-07-29T00:18:54;50.13;47.55;54.45;;
66460;Laerm;58055;52.456;4.738;2023-07-29T00:19:04;50.18;48.11;56.25;;
66460;Laerm;58055;52.456;4.738;2023-07-29T00:19:14;50.43;48.35;54.23;;
66460;Laerm;58055;52.456;4.738;2023-07-29T00:19:25;50.14;47.69;56.86;;
66460;Laerm;58055;52.456;4.738;2023-07-29T00:19:35;50.19;47.26;54.27;;
66460;Laerm;58055;52.456;4.738;2023-07-29T00:19:45;50.48;47.94;56.52;;
66460;Laerm;58055;52.456;4.738;2023-07-29T00:19:56;53.17;48.43;58.13;;
66460;Laerm;58055;52.456;4.738;2023-07-29T00:20:06;58.60;48.95;66.70;;
66460;Laerm;58055;52.456;4.738;2023-07-29T00:20:17;55.10;50.17;66.63;;
66460;Laerm;58055;52.456;4.738;2023-07-29T00:20:27;52.49;48.71;56.06;;
66460;Laerm;58055;52.456;4.738;2023-07-29T00:20:37;52.50;48.94;56.74;;
66460;Laerm;58055;52.456;4.738;2023-07-29T00:20:47;51.96;48.60;55.97;;
66460;Laerm;58055;52.456;4.738;2023-07-29T00:20:58;52.94;49.21;56.18;;
66460;Laerm;58055;52.456;4.738;2023-07-29T00:21:08;52.52;49.27;56.48;;
66460;Laerm;58055;52.456;4.738;2023-07-29T00:21:18;52.41;49.13;55.73;;
66460;Laerm;58055;52.456;4.738;2023-07-29T00:21:28;52.74;49.08;58.36;;
66460;Laerm;58055;52.456;4.738;2023-07-29T00:21:39;51.49;47.70;56.72;;
66460;Laerm;58055;52.456;4.738;2023-07-29T00:21:50;52.93;49.24;58.68;;
66460;Laerm;58055;52.456;4.738;2023-07-29T00:22:00;50.06;47.66;55.81;;
66460;Laerm;58055;52.456;4.738;2023-07-29T00:22:10;49.49;47.21;54.37;;
66460;Laerm;58055;52.456;4.738;2023-07-29T00:22:20;49.97;47.58;55.92;;
66460;Laerm;58055;52.456;4.738;2023-07-29T00:22:31;50.85;47.72;55.74;;
66460;Laerm;58055;52.456;4.738;2023-07-29T00:22:41;52.06;48.57;56.73;;
66460;Laerm;58055;52.456;4.738;2023-07-29T00:22:51;51.86;48.40;56.79;;
66460;Laerm;58055;52.456;4.738;2023-07-29T00:23:05;53.28;49.11;58.24;;
66460;Laerm;58055;52.456;4.738;2023-07-29T00:23:16;52.48;49.33;56.18;;
66460;Laerm;58055;52.456;4.738;2023-07-29T00:23:26;51.47;47.58;56.96;;
66460;Laerm;58055;52.456;4.738;2023-07-29T00:23:37;51.22;47.89;56.80;;
66460;Laerm;58055;52.456;4.738;2023-07-29T00:23:47;49.29;46.89;54.66;;
66460;Laerm;58055;52.456;4.738;2023-07-29T00:23:57;48.53;46.56;53.96;;
66460;Laerm;58055;52.456;4.738;2023-07-29T00:24:07;48.68;46.96;53.41;;
66460;Laerm;58055;52.456;4.738;2023-07-29T00:24:18;48.80;46.98;53.09;;
66460;Laerm;58055;52.456;4.738;2023-07-29T00:24:28;48.64;46.81;53.91;;
66460;Laerm;58055;52.456;4.738;2023-07-29T00:24:39;48.64;46.41;52.98;;
66460;Laerm;58055;52.456;4.738;2023-07-29T00:24:52;48.93;46.91;53.68;;
66460;Laerm;58055;52.456;4.738;2023-07-29T00:25:05;48.74;46.83;54.58;;
66460;Laerm;58055;52.456;4.738;2023-07-29T00:25:15;49.33;47.35;54.86;;
66460;Laerm;58055;52.456;4.738;2023-07-29T00:25:26;49.04;47.04;56.05;;
66460;Laerm;58055;52.456;4.738;2023-07-29T00:25:36;49.11;47.18;53.61;;
66460;Laerm;58055;52.456;4.738;2023-07-29T00:25:46;48.90;47.44;53.42;;
66460;Laerm;58055;52.456;4.738;2023-07-29T00:25:57;49.01;46.98;53.35;;
66460;Laerm;58055;52.456;4.738;2023-07-29T00:26:07;49.65;47.60;54.70;;
66460;Laerm;58055;52.456;4.738;2023-07-29T00:26:17;48.82;47.34;53.58;;
66460;Laerm;58055;52.456;4.738;2023-07-29T00:26:28;48.73;47.18;53.39;;
66460;Laerm;58055;52.456;4.738;2023-07-29T00:26:42;48.76;46.83;52.45;;
66460;Laerm;58055;52.456;4.738;2023-07-29T00:26:52;48.81;47.22;53.61;;
66460;Laerm;58055;52.456;4.738;2023-07-29T00:27:02;48.50;46.90;52.91;;
66460;Laerm;58055;52.456;4.738;2023-07-29T00:27:12;50.88;47.49;55.55;;
66460;Laerm;58055;52.456;4.738;2023-07-29T00:27:23;52.67;49.81;55.72;;
66460;Laerm;58055;52.456;4.738;2023-07-29T00:27:33;54.96;50.48;58.97;;
66460;Laerm;58055;52.456;4.738;2023-07-29T00:27:44;56.60;53.02;60.49;;
66460;Laerm;58055;52.456;4.738;2023-07-29T00:27:55;56.43;52.59;59.01;;
66460;Laerm;58055;52.456;4.738;2023-07-29T00:28:06;54.42;49.24;58.92;;
66460;Laerm;58055;52.456;4.738;2023-07-29T00:28:16;54.24;50.38;58.91;;
66460;Laerm;58055;52.456;4.738;2023-07-29T00:28:26;54.33;50.37;57.30;;
66460;Laerm;58055;52.456;4.738;2023-07-29T00:28:37;57.06;50.54;66.94;;
66460;Laerm;58055;52.456;4.738;2023-07-29T00:28:47;57.26;51.66;68.17;;
66460;Laerm;58055;52.456;4.738;2023-07-29T00:28:58;54.87;51.03;62.70;;
66460;Laerm;58055;52.456;4.738;2023-07-29T00:29:08;54.84;48.94;60.87;;
66460;Laerm;58055;52.456;4.738;2023-07-29T00:29:18;52.15;47.53;58.98;;
66460;Laerm;58055;52.456;4.738;2023-07-29T00:29:28;53.17;47.72;58.41;;
66460;Laerm;58055;52.456;4.738;2023-07-29T00:29:39;50.51;47.26;56.42;;
66460;Laerm;58055;52.456;4.738;2023-07-29T00:29:49;54.36;47.47;64.04;;
66460;Laerm;58055;52.456;4.738;2023-07-29T00:29:59;49.16;47.34;51.38;;
66460;Laerm;58055;52.456;4.738;2023-07-29T00:30:10;52.31;47.71;59.60;;
66460;Laerm;58055;52.456;4.738;2023-07-29T00:30:20;56.41;49.95;67.10;;
66460;Laerm;58055;52.456;4.738;2023-07-29T00:30:30;55.51;51.44;60.92;;
66460;Laerm;58055;52.456;4.738;2023-07-29T00:30:41;60.79;48.37;68.32;;
66460;Laerm;58055;52.456;4.738;2023-07-29T00:30:51;52.21;47.72;60.81;;
66460;Laerm;58055;52.456;4.738;2023-07-29T00:31:01;51.59;47.01;60.34;;
66460;Laerm;58055;52.456;4.738;2023-07-29T00:31:12;55.99;47.35;62.64;;
66460;Laerm;58055;52.456;4.738;2023-07-29T00:31:22;58.21;50.06;67.70;;
66460;Laerm;58055;52.456;4.738;2023-07-29T00:31:33;55.97;47.19;64.96;;
66460;Laerm;58055;52.456;4.738;2023-07-29T00:31:43;57.66;48.94;62.94;;
66460;Laerm;58055;52.456;4.738;2023-07-29T00:31:53;57.10;48.56;66.27;;
66460;Laerm;58055;52.456;4.738;2023-07-29T00:32:04;56.45;51.22;60.15;;
66460;Laerm;58055;52.456;4.738;2023-07-29T00:32:14;54.37;49.07;58.85;;
66460;Laerm;58055;52.456;4.738;2023-07-29T00:32:24;54.59;49.36;58.23;;
66460;Laerm;58055;52.456;4.738;2023-07-29T00:32:35;53.82;49.55;57.64;;
66460;Laerm;58055;52.456;4.738;2023-07-29T00:32:45;54.61;49.38;58.69;;
66460;Laerm;58055;52.456;4.738;2023-07-29T00:32:55;55.10;49.96;60.15;;
66460;Laerm;58055;52.456;4.738;2023-07-29T00:33:06;55.17;50.96;61.26;;
66460;Laerm;58055;52.456;4.738;2023-07-29T00:33:16;55.45;50.79;60.64;;
66460;Laerm;58055;52.456;4.738;2023-07-29T00:33:26;55.76;51.15;58.41;;
66460;Laerm;58055;52.456;4.738;2023-07-29T00:33:36;56.19;51.13;61.71;;
66460;Laerm;58055;52.456;4.738;2023-07-29T00:33:46;56.60;51.84;60.47;;
66460;Laerm;58055;52.456;4.738;2023-07-29T00:33:57;57.03;52.45;60.49;;
66460;Laerm;58055;52.456;4.738;2023-07-29T00:34:08;54.13;49.14;57.91;;
66460;Laerm;58055;52.456;4.738;2023-07-29T00:34:19;55.60;50.97;61.27;;
66460;Laerm;58055;52.456;4.738;2023-07-29T00:34:29;54.86;50.71;58.40;;
66460;Laerm;58055;52.456;4.738;2023-07-29T00:34:40;53.77;49.45;56.83;;
66460;Laerm;58055;52.456;4.738;2023-07-29T00:34:51;54.29;50.06;59.17;;
66460;Laerm;58055;52.456;4.738;2023-07-29T00:35:01;57.32;52.26;63.09;;
66460;Laerm;58055;52.456;4.738;2023-07-29T00:35:12;55.89;51.94;59.97;;
66460;Laerm;58055;52.456;4.738;2023-07-29T00:35:22;56.46;47.98;64.44;;
66460;Laerm;58055;52.456;4.738;2023-07-29T00:35:32;54.56;48.00;63.07;;
66460;Laerm;58055;52.456;4.738;2023-07-29T00:35:43;55.85;47.72;62.71;;
66460;Laerm;58055;52.456;4.738;2023-07-29T00:35:53;54.33;48.26;62.24;;
66460;Laerm;58055;52.456;4.738;2023-07-29T00:36:04;54.77;49.35;61.92;;
66460;Laerm;58055;52.456;4.738;2023-07-29T00:36:14;55.54;49.02;61.34;;
66460;Laerm;58055;52.456;4.738;2023-07-29T00:36:24;55.51;49.20;60.37;;
66460;Laerm;58055;52.456;4.738;2023-07-29T00:36:34;58.02;53.08;60.55;;
66460;Laerm;58055;52.456;4.738;2023-07-29T00:36:45;58.04;52.93;60.07;;
66460;Laerm;58055;52.456;4.738;2023-07-29T00:36:55;57.24;48.99;60.44;;
66460;Laerm;58055;52.456;4.738;2023-07-29T00:37:06;52.80;48.35;59.22;;
66460;Laerm;58055;52.456;4.738;2023-07-29T00:37:16;52.16;47.96;62.09;;
66460;Laerm;58055;52.456;4.738;2023-07-29T00:37:27;51.56;49.64;55.12;;
66460;Laerm;58055;52.456;4.738;2023-07-29T00:37:37;51.39;49.02;53.54;;
66460;Laerm;58055;52.456;4.738;2023-07-29T00:37:47;51.38;49.61;53.42;;
66460;Laerm;58055;52.456;4.738;2023-07-29T00:37:58;56.00;49.74;66.78;;
66460;Laerm;58055;52.456;4.738;2023-07-29T00:38:08;52.93;48.33;62.25;;
66460;Laerm;58055;52.456;4.738;2023-07-29T00:38:18;54.36;49.03;60.49;;
66460;Laerm;58055;52.456;4.738;2023-07-29T00:38:29;57.50;52.36;62.23;;
66460;Laerm;58055;52.456;4.738;2023-07-29T00:38:39;56.65;52.77;60.68;;
66460;Laerm;58055;52.456;4.738;2023-07-29T00:38:49;55.57;52.63;60.64;;
66460;Laerm;58055;52.456;4.738;2023-07-29T00:39:00;56.92;51.78;60.35;;
66460;Laerm;58055;52.456;4.738;2023-07-29T00:39:11;56.76;51.01;62.40;;
66460;Laerm;58055;52.456;4.738;2023-07-29T00:39:21;58.22;52.44;63.53;;
66460;Laerm;58055;52.456;4.738;2023-07-29T00:39:32;58.41;50.54;63.57;;
66460;Laerm;58055;52.456;4.738;2023-07-29T00:39:43;59.03;51.68;63.15;;
66460;Laerm;58055;52.456;4.738;2023-07-29T00:39:53;59.98;54.49;63.98;;
66460;Laerm;58055;52.456;4.738;2023-07-29T00:40:05;59.16;55.35;62.86;;
66460;Laerm;58055;52.456;4.738;2023-07-29T00:40:20;63.29;51.28;66.34;;
66460;Laerm;58055;52.456;4.738;2023-07-29T00:40:30;55.95;50.89;62.52;;
66460;Laerm;58055;52.456;4.738;2023-07-29T00:40:45;54.65;50.33;58.73;;
66460;Laerm;58055;52.456;4.738;2023-07-29T00:40:58;52.66;48.56;56.25;;
66460;Laerm;58055;52.456;4.738;2023-07-29T00:41:10;52.87;49.36;55.56;;
66460;Laerm;58055;52.456;4.738;2023-07-29T00:41:23;53.27;50.03;55.67;;
66460;Laerm;58055;52.456;4.738;2023-07-29T00:41:33;52.20;49.26;56.18;;
66460;Laerm;58055;52.456;4.738;2023-07-29T00:41:44;52.30;48.08;56.64;;
66460;Laerm;58055;52.456;4.738;2023-07-29T00:41:54;49.86;47.90;53.33;;
66460;Laerm;58055;52.456;4.738;2023-07-29T00:42:04;50.50;48.11;55.36;;
66460;Laerm;58055;52.456;4.738;2023-07-29T00:42:15;53.63;51.42;56.58;;
66460;Laerm;58055;52.456;4.738;2023-07-29T00:42:25;53.04;50.23;55.71;;
66460;Laerm;58055;52.456;4.738;2023-07-29T00:42:35;52.72;50.65;55.24;;
66460;Laerm;58055;52.456;4.738;2023-07-29T00:42:45;54.29;51.34;57.62;;
66460;Laerm;58055;52.456;4.738;2023-07-29T00:42:56;55.31;51.31;58.36;;
66460;Laerm;58055;52.456;4.738;2023-07-29T00:43:06;53.73;49.74;57.77;;
66460;Laerm;58055;52.456;4.738;2023-07-29T00:43:16;52.69;50.04;55.74;;
66460;Laerm;58055;52.456;4.738;2023-07-29T00:43:27;52.17;49.08;54.72;;
66460;Laerm;58055;52.456;4.738;2023-07-29T00:43:37;51.03;47.81;55.19;;
66460;Laerm;58055;52.456;4.738;2023-07-29T00:43:47;50.77;47.65;55.45;;
66460;Laerm;58055;52.456;4.738;2023-07-29T00:43:57;51.41;48.37;54.67;;
66460;Laerm;58055;52.456;4.738;2023-07-29T00:44:07;51.32;48.43;54.20;;
66460;Laerm;58055;52.456;4.738;2023-07-29T00:44:18;51.32;48.71;54.11;;
66460;Laerm;58055;52.456;4.738;2023-07-29T00:44:28;50.72;48.32;53.95;;
66460;Laerm;58055;52.456;4.738;2023-07-29T00:44:38;50.99;48.98;54.81;;
66460;Laerm;58055;52.456;4.738;2023-07-29T00:44:49;49.61;47.42;52.72;;
66460;Laerm;58055;52.456;4.738;2023-07-29T00:44:59;49.15;47.15;53.55;;
66460;Laerm;58055;52.456;4.738;2023-07-29T00:45:09;48.32;46.75;50.75;;
66460;Laerm;58055;52.456;4.738;2023-07-29T00:45:20;48.45;46.79;50.86;;
66460;Laerm;58055;52.456;4.738;2023-07-29T00:45:30;48.32;46.59;51.13;;
66460;Laerm;58055;52.456;4.738;2023-07-29T00:45:41;48.54;46.61;52.08;;
66460;Laerm;58055;52.456;4.738;2023-07-29T00:45:53;48.91;46.58;51.68;;
66460;Laerm;58055;52.456;4.738;2023-07-29T00:46:03;50.62;48.35;53.70;;
66460;Laerm;58055;52.456;4.738;2023-07-29T00:46:14;49.59;47.14;51.88;;
66460;Laerm;58055;52.456;4.738;2023-07-29T00:46:25;49.75;47.37;53.29;;
66460;Laerm;58055;52.456;4.738;2023-07-29T00:46:37;49.44;47.57;52.21;;
66460;Laerm;58055;52.456;4.738;2023-07-29T00:46:49;49.80;47.85;52.28;;
66460;Laerm;58055;52.456;4.738;2023-07-29T00:47:00;50.82;47.98;57.18;;
66460;Laerm;58055;52.456;4.738;2023-07-29T00:47:12;62.61;49.23;67.58;;
66460;Laerm;58055;52.456;4.738;2023-07-29T00:47:25;62.01;50.56;66.33;;
66460;Laerm;58055;52.456;4.738;2023-07-29T00:47:35;56.25;50.82;59.78;;
66460;Laerm;58055;52.456;4.738;2023-07-29T00:47:46;55.87;50.45;59.77;;
66460;Laerm;58055;52.456;4.738;2023-07-29T00:47:57;57.54;52.01;61.08;;
66460;Laerm;58055;52.456;4.738;2023-07-29T00:48:07;57.62;52.39;61.65;;
66460;Laerm;58055;52.456;4.738;2023-07-29T00:48:17;55.86;51.50;60.15;;
66460;Laerm;58055;52.456;4.738;2023-07-29T00:48:28;55.85;51.95;59.86;;
66460;Laerm;58055;52.456;4.738;2023-07-29T00:48:39;53.96;48.64;60.45;;
66460;Laerm;58055;52.456;4.738;2023-07-29T00:48:49;52.78;49.26;57.29;;
66460;Laerm;58055;52.456;4.738;2023-07-29T00:48:59;53.77;48.33;57.93;;
66460;Laerm;58055;52.456;4.738;2023-07-29T00:49:10;53.67;49.78;57.82;;
66460;Laerm;58055;52.456;4.738;2023-07-29T00:49:20;55.63;49.86;59.82;;
66460;Laerm;58055;52.456;4.738;2023-07-29T00:49:31;56.27;51.64;60.27;;
66460;Laerm;58055;52.456;4.738;2023-07-29T00:49:42;55.62;49.21;60.01;;
66460;Laerm;58055;52.456;4.738;2023-07-29T00:49:53;55.06;51.21;58.21;;
66460;Laerm;58055;52.456;4.738;2023-07-29T00:50:03;54.56;47.37;58.55;;
66460;Laerm;58055;52.456;4.738;2023-07-29T00:50:14;49.28;47.48;52.16;;
66460;Laerm;58055;52.456;4.738;2023-07-29T00:50:25;49.20;47.78;52.49;;
66460;Laerm;58055;52.456;4.738;2023-07-29T00:50:37;49.09;47.58;53.58;;
66460;Laerm;58055;52.456;4.738;2023-07-29T00:50:48;49.69;47.87;53.21;;
66460;Laerm;58055;52.456;4.738;2023-07-29T00:50:58;51.81;48.87;56.75;;
66460;Laerm;58055;52.456;4.738;2023-07-29T00:51:08;51.54;47.89;58.31;;
66460;Laerm;58055;52.456;4.738;2023-07-29T00:51:19;49.53;48.03;56.03;;
66460;Laerm;58055;52.456;4.738;2023-07-29T00:51:29;49.58;48.27;56.30;;
66460;Laerm;58055;52.456;4.738;2023-07-29T00:51:39;50.67;48.39;54.52;;
66460;Laerm;58055;52.456;4.738;2023-07-29T00:51:50;50.68;48.55;54.55;;
66460;Laerm;58055;52.456;4.738;2023-07-29T00:52:00;50.49;48.34;54.49;;
66460;Laerm;58055;52.456;4.738;2023-07-29T00:52:11;56.00;49.76;60.14;;
66460;Laerm;58055;52.456;4.738;2023-07-29T00:52:22;57.51;53.11;60.25;;
66460;Laerm;58055;52.456;4.738;2023-07-29T00:52:32;57.48;49.83;60.46;;
66460;Laerm;58055;52.456;4.738;2023-07-29T00:52:43;57.41;53.49;60.17;;
66460;Laerm;58055;52.456;4.738;2023-07-29T00:52:54;58.63;53.51;61.97;;
66460;Laerm;58055;52.456;4.738;2023-07-29T00:53:04;59.45;52.91;61.87;;
66460;Laerm;58055;52.456;4.738;2023-07-29T00:53:14;55.34;48.90;61.71;;
66460;Laerm;58055;52.456;4.738;2023-07-29T00:53:25;50.83;48.75;55.21;;
66460;Laerm;58055;52.456;4.738;2023-07-29T00:53:35;51.82;48.18;61.74;;
66460;Laerm;58055;52.456;4.738;2023-07-29T00:53:45;51.41;47.13;54.68;;
66460;Laerm;58055;52.456;4.738;2023-07-29T00:53:56;48.55;46.87;52.42;;
66460;Laerm;58055;52.456;4.738;2023-07-29T00:54:06;48.51;46.79;52.78;;
66460;Laerm;58055;52.456;4.738;2023-07-29T00:54:16;49.07;47.55;50.83;;
66460;Laerm;58055;52.456;4.738;2023-07-29T00:54:26;49.49;47.65;53.93;;
66460;Laerm;58055;52.456;4.738;2023-07-29T00:54:37;49.31;47.56;54.68;;
66460;Laerm;58055;52.456;4.738;2023-07-29T00:54:47;49.65;47.48;53.86;;
66460;Laerm;58055;52.456;4.738;2023-07-29T00:54:57;49.35;46.87;60.50;;
66460;Laerm;58055;52.456;4.738;2023-07-29T00:55:08;51.68;46.90;58.75;;
66460;Laerm;58055;52.456;4.738;2023-07-29T00:55:18;48.59;46.95;53.85;;
66460;Laerm;58055;52.456;4.738;2023-07-29T00:55:29;48.39;47.15;53.48;;
66460;Laerm;58055;52.456;4.738;2023-07-29T00:55:39;48.57;46.75;60.54;;
66460;Laerm;58055;52.456;4.738;2023-07-29T00:55:49;54.23;46.41;60.23;;
66460;Laerm;58055;52.456;4.738;2023-07-29T00:55:59;54.71;47.53;59.79;;
66460;Laerm;58055;52.456;4.738;2023-07-29T00:56:10;53.71;46.85;57.44;;
66460;Laerm;58055;52.456;4.738;2023-07-29T00:56:21;54.70;47.36;59.08;;
66460;Laerm;58055;52.456;4.738;2023-07-29T00:56:31;58.38;49.02;64.23;;
66460;Laerm;58055;52.456;4.738;2023-07-29T00:56:41;56.27;47.19;60.50;;
66460;Laerm;58055;52.456;4.738;2023-07-29T00:56:52;50.98;47.13;59.54;;
66460;Laerm;58055;52.456;4.738;2023-07-29T00:57:02;53.15;48.12;59.57;;
66460;Laerm;58055;52.456;4.738;2023-07-29T00:57:13;54.41;47.96;59.82;;
66460;Laerm;58055;52.456;4.738;2023-07-29T00:57:24;52.61;48.54;56.73;;
66460;Laerm;58055;52.456;4.738;2023-07-29T00:57:35;52.17;48.27;55.89;;
66460;Laerm;58055;52.456;4.738;2023-07-29T00:57:45;52.06;48.33;56.08;;
66460;Laerm;58055;52.456;4.738;2023-07-29T00:57:58;51.78;49.00;56.11;;
66460;Laerm;58055;52.456;4.738;2023-07-29T00:58:08;51.75;48.70;55.10;;
66460;Laerm;58055;52.456;4.738;2023-07-29T00:58:19;52.10;48.71;57.22;;
66460;Laerm;58055;52.456;4.738;2023-07-29T00:58:29;52.00;49.33;58.47;;
66460;Laerm;58055;52.456;4.738;2023-07-29T00:58:40;52.36;47.81;55.67;;
66460;Laerm;58055;52.456;4.738;2023-07-29T00:58:51;54.15;51.93;56.67;;